Time;durP1;ratioP1;P1;durP2;ratioP2;P2;SDS_P1;SDS_P2;PMS_P1;PMS_P2;Temp;Humidity;BMP_temperature;BMP_pressure;BME280_temperature;BME280_humidity;BME280_pressure;Samples;Min_cycle;Max_cycle;Signal;HPM_P1;HPM_P2
2020/12/06 00:02:07;;;;;;;16.33;10.90;;;2.20;99.90;;;;;;5053662;28;20082;-71
2020/12/06 00:04:32;;;;;;;18.17;11.90;;;2.20;99.90;;;;;;5060459;28;20024;-70
2020/12/06 00:06:58;;;;;;;15.65;10.30;;;2.20;99.90;;;;;;5051792;28;20021;-70
2020/12/06 00:09:24;;;;;;;20.02;12.55;;;2.10;99.90;;;;;;5050619;28;20028;-70
2020/12/06 00:11:50;;;;;;;19.98;12.10;;;2.10;99.90;;;;;;5053658;28;20379;-70
2020/12/06 00:14:15;;;;;;;22.25;11.90;;;2.10;99.90;;;;;;5055694;28;20731;-70
2020/12/06 00:16:41;;;;;;;22.35;13.23;;;2.00;99.90;;;;;;5051650;28;20044;-70
2020/12/06 00:19:07;;;;;;;24.08;14.20;;;2.00;99.90;;;;;;5050745;28;20025;-70
2020/12/06 00:21:33;;;;;;;22.02;13.95;;;2.00;99.90;;;;;;5059325;28;20031;-70
2020/12/06 00:23:59;;;;;;;23.00;13.85;;;1.90;99.90;;;;;;5060542;28;20032;-70
2020/12/06 00:26:26;;;;;;;21.73;13.00;;;2.00;99.90;;;;;;5054443;28;20025;-70
2020/12/06 00:28:53;;;;;;;23.48;14.38;;;2.00;99.90;;;;;;5056621;28;20104;-70
2020/12/06 00:31:19;;;;;;;22.85;13.63;;;2.00;99.90;;;;;;5051218;28;20116;-70
2020/12/06 00:33:45;;;;;;;20.67;12.93;;;1.90;99.90;;;;;;5054116;28;20477;-69
2020/12/06 00:36:12;;;;;;;18.52;12.77;;;1.90;99.90;;;;;;5063055;28;20040;-70
2020/12/06 00:38:38;;;;;;;16.70;11.15;;;2.00;99.90;;;;;;5056247;28;20021;-70
2020/12/06 00:41:05;;;;;;;19.27;11.50;;;2.00;99.90;;;;;;5062784;28;20033;-70
2020/12/06 00:43:30;;;;;;;19.90;11.45;;;2.00;99.90;;;;;;5062198;28;20036;-70
2020/12/06 00:45:56;;;;;;;20.15;12.60;;;2.10;99.90;;;;;;5065162;28;20053;-70
2020/12/06 00:48:22;;;;;;;22.88;11.68;;;2.10;99.90;;;;;;5058902;28;20016;-70
2020/12/06 00:50:48;;;;;;;17.67;11.40;;;2.10;99.90;;;;;;5056568;28;20021;-70
2020/12/06 00:53:13;;;;;;;21.17;13.80;;;2.20;99.90;;;;;;5062537;28;20025;-70
2020/12/06 00:55:39;;;;;;;19.63;12.38;;;2.20;99.90;;;;;;5062321;28;20033;-70
2020/12/06 00:58:05;;;;;;;19.45;12.25;;;2.20;99.90;;;;;;5058219;28;20063;-69
2020/12/06 01:00:30;;;;;;;20.20;12.68;;;2.20;99.90;;;;;;5058438;28;20021;-69
2020/12/06 01:02:56;;;;;;;21.52;13.02;;;2.20;99.90;;;;;;5051041;28;20017;-70
2020/12/06 01:05:22;;;;;;;20.23;13.25;;;2.10;99.90;;;;;;5061322;28;20016;-70
2020/12/06 01:07:48;;;;;;;20.52;13.27;;;2.20;99.90;;;;;;5054779;28;20358;-70
2020/12/06 01:10:13;;;;;;;29.35;16.17;;;2.20;99.90;;;;;;5055929;28;20036;-70
2020/12/06 01:12:40;;;;;;;25.05;14.90;;;2.20;99.90;;;;;;5056452;28;20096;-70
2020/12/06 01:15:08;;;;;;;19.90;12.98;;;2.10;99.90;;;;;;5056932;28;20036;-70
2020/12/06 01:17:34;;;;;;;22.33;13.55;;;2.20;99.90;;;;;;5058070;28;20013;-70
2020/12/06 01:19:59;;;;;;;22.38;14.88;;;2.20;99.90;;;;;;5060259;28;20029;-69
2020/12/06 01:22:26;;;;;;;24.15;14.23;;;2.20;99.90;;;;;;5062067;28;20024;-70
2020/12/06 01:24:51;;;;;;;23.90;14.70;;;2.20;99.90;;;;;;5056991;28;20036;-70
2020/12/06 01:27:17;;;;;;;23.75;14.65;;;2.10;99.90;;;;;;5061103;28;20029;-70
2020/12/06 01:29:43;;;;;;;27.48;15.75;;;2.20;99.90;;;;;;5061203;28;20647;-70
2020/12/06 01:32:09;;;;;;;26.13;15.98;;;2.20;99.90;;;;;;5062443;28;20041;-70
2020/12/06 01:34:35;;;;;;;24.77;15.55;;;2.20;99.90;;;;;;5059487;28;20469;-70
2020/12/06 01:37:00;;;;;;;29.15;16.70;;;2.20;99.90;;;;;;5061931;28;20036;-69
2020/12/06 01:39:26;;;;;;;26.98;16.20;;;2.20;99.90;;;;;;5064621;28;20392;-70
2020/12/06 01:41:56;;;;;;;27.90;17.42;;;2.20;99.90;;;;;;5057251;28;20037;-70
2020/12/06 01:44:24;;;;;;;31.83;18.48;;;2.30;99.90;;;;;;5059871;28;20021;-70
2020/12/06 01:46:51;;;;;;;26.02;16.45;;;2.30;99.90;;;;;;5060273;28;20059;-70
2020/12/06 01:49:20;;;;;;;30.33;17.15;;;2.20;99.90;;;;;;5056847;28;20029;-70
2020/12/06 01:51:51;;;;;;;34.00;18.63;;;2.20;99.90;;;;;;5062635;28;20036;-70
2020/12/06 01:54:16;;;;;;;42.55;19.60;;;2.20;99.90;;;;;;5054262;28;20028;-70
2020/12/06 01:56:42;;;;;;;36.30;19.42;;;2.20;99.90;;;;;;5060012;28;20037;-70
2020/12/06 01:59:11;;;;;;;33.22;17.08;;;2.30;99.90;;;;;;5057219;28;20033;-70
2020/12/06 02:01:41;;;;;;;25.75;16.50;;;2.30;99.90;;;;;;5060264;28;20025;-70
2020/12/06 02:04:07;;;;;;;29.60;16.90;;;2.30;99.90;;;;;;5055565;28;20032;-70
2020/12/06 02:06:33;;;;;;;30.27;17.13;;;2.40;99.90;;;;;;5058151;28;20025;-70
2020/12/06 02:08:59;;;;;;;35.40;19.48;;;2.40;99.90;;;;;;5062618;28;20032;-70
2020/12/06 02:11:31;;;;;;;35.45;19.50;;;2.40;99.90;;;;;;5061367;28;20043;-70
2020/12/06 02:13:57;;;;;;;38.60;20.83;;;2.50;99.90;;;;;;5055263;28;20037;-70
2020/12/06 02:16:22;;;;;;;31.10;19.40;;;2.50;99.90;;;;;;5054653;28;20033;-71
2020/12/06 02:18:48;;;;;;;32.67;17.88;;;2.50;99.90;;;;;;5060366;28;20481;-70
2020/12/06 02:21:14;;;;;;;39.85;20.98;;;2.50;99.90;;;;;;5061198;28;20390;-70
2020/12/06 02:23:40;;;;;;;26.73;17.30;;;2.50;99.90;;;;;;5061074;28;20117;-70
2020/12/06 02:26:05;;;;;;;32.20;18.23;;;2.40;99.90;;;;;;5060432;28;20120;-69
2020/12/06 02:28:31;;;;;;;30.83;17.98;;;2.40;99.90;;;;;;5058058;28;20053;-70
2020/12/06 02:30:57;;;;;;;33.17;17.55;;;2.40;99.90;;;;;;5054830;28;20032;-69
2020/12/06 02:33:22;;;;;;;31.83;18.13;;;2.40;99.90;;;;;;5060749;28;20029;-70
2020/12/06 02:35:48;;;;;;;32.70;19.10;;;2.40;99.90;;;;;;5067268;28;20044;-70
2020/12/06 02:38:14;;;;;;;34.38;19.38;;;2.50;99.90;;;;;;5062950;28;20025;-70
2020/12/06 02:40:39;;;;;;;36.42;20.20;;;2.50;99.90;;;;;;5056503;28;20028;-70
2020/12/06 02:43:05;;;;;;;37.88;20.65;;;2.50;99.90;;;;;;5060789;28;20111;-70
2020/12/06 02:45:31;;;;;;;33.75;18.50;;;2.50;99.90;;;;;;5056946;28;20033;-70
2020/12/06 02:47:56;;;;;;;37.88;21.00;;;2.50;99.90;;;;;;5061335;28;20035;-70
2020/12/06 02:50:22;;;;;;;33.33;19.92;;;2.50;99.90;;;;;;5055903;28;20033;-69
2020/12/06 02:52:48;;;;;;;45.92;22.50;;;2.50;99.90;;;;;;5057728;28;20031;-70
2020/12/06 02:55:13;;;;;;;37.55;19.65;;;2.50;99.90;;;;;;5058035;28;20063;-69
2020/12/06 02:57:39;;;;;;;32.78;18.42;;;2.50;99.90;;;;;;5062818;28;20029;-70
2020/12/06 03:00:04;;;;;;;36.00;20.73;;;2.40;99.90;;;;;;5062098;28;20172;-70
2020/12/06 03:02:30;;;;;;;38.60;21.42;;;2.40;99.90;;;;;;5058503;28;20541;-70
2020/12/06 03:04:56;;;;;;;41.75;21.58;;;2.40;99.90;;;;;;5062259;28;20111;-69
2020/12/06 03:07:21;;;;;;;44.08;22.23;;;2.40;99.90;;;;;;5063934;28;20035;-69
2020/12/06 03:09:47;;;;;;;37.58;20.55;;;2.30;99.90;;;;;;5058345;28;20025;-69
2020/12/06 03:12:13;;;;;;;37.47;20.65;;;2.40;99.90;;;;;;5058137;28;20033;-70
2020/12/06 03:14:38;;;;;;;34.35;19.08;;;2.40;99.90;;;;;;5054995;28;20501;-70
2020/12/06 03:17:04;;;;;;;37.70;20.80;;;2.40;99.90;;;;;;5060320;28;20068;-70
2020/12/06 03:19:29;;;;;;;35.25;19.60;;;2.40;99.90;;;;;;5060003;28;20032;-70
2020/12/06 03:21:55;;;;;;;41.92;21.23;;;2.50;99.90;;;;;;5055899;28;20083;-69
2020/12/06 03:24:21;;;;;;;39.08;21.50;;;2.50;99.90;;;;;;5056128;28;20028;-69
2020/12/06 03:26:46;;;;;;;41.58;23.50;;;2.40;99.90;;;;;;5053555;28;20036;-69
2020/12/06 03:29:12;;;;;;;35.35;21.50;;;2.50;99.90;;;;;;5054036;28;20477;-70
2020/12/06 03:31:37;;;;;;;44.72;23.83;;;2.50;99.90;;;;;;5055243;28;20048;-70
2020/12/06 03:34:03;;;;;;;40.85;22.83;;;2.50;99.90;;;;;;5060856;28;20033;-70
2020/12/06 03:36:29;;;;;;;45.30;24.75;;;2.50;99.90;;;;;;5057375;28;20036;-69
2020/12/06 03:38:54;;;;;;;37.80;20.92;;;2.50;99.90;;;;;;5059454;28;20127;-69
2020/12/06 03:41:21;;;;;;;40.42;22.80;;;2.50;99.90;;;;;;5064509;28;20025;-69
2020/12/06 03:43:47;;;;;;;48.08;25.75;;;2.50;99.90;;;;;;5051835;28;20393;-70
2020/12/06 03:46:12;;;;;;;46.58;24.77;;;2.50;99.90;;;;;;5052676;28;20021;-69
2020/12/06 03:48:38;;;;;;;39.63;22.35;;;2.50;99.90;;;;;;5055066;28;20045;-70
2020/12/06 03:51:04;;;;;;;41.72;23.45;;;2.50;99.90;;;;;;5057556;28;20028;-70
2020/12/06 03:53:29;;;;;;;44.55;26.10;;;2.50;99.90;;;;;;5052640;28;20606;-69
2020/12/06 03:55:55;;;;;;;48.42;25.50;;;2.50;99.90;;;;;;5055060;28;20040;-70
2020/12/06 03:58:20;;;;;;;52.78;25.42;;;2.50;99.90;;;;;;5053729;28;20021;-70
2020/12/06 04:00:46;;;;;;;50.58;26.23;;;2.50;99.90;;;;;;5056113;28;20028;-70
2020/12/06 04:03:12;;;;;;;44.63;23.70;;;2.50;99.90;;;;;;5061802;28;20036;-70
2020/12/06 04:05:37;;;;;;;42.53;23.63;;;2.60;99.90;;;;;;5055583;28;20032;-70
2020/12/06 04:08:03;;;;;;;39.25;22.05;;;2.60;99.90;;;;;;5063240;28;20481;-70
2020/12/06 04:10:29;;;;;;;49.03;24.52;;;2.60;99.90;;;;;;5059838;28;20116;-70
2020/12/06 04:12:54;;;;;;;42.20;23.65;;;2.60;99.90;;;;;;5057531;28;20474;-70
2020/12/06 04:15:20;;;;;;;50.45;25.42;;;2.60;99.90;;;;;;5051219;28;20040;-69
2020/12/06 04:17:46;;;;;;;46.38;24.23;;;2.60;99.90;;;;;;5058731;28;20469;-70
2020/12/06 04:20:12;;;;;;;40.15;22.55;;;2.70;99.90;;;;;;5047158;28;20036;-69
2020/12/06 04:22:37;;;;;;;42.13;23.73;;;2.60;99.90;;;;;;5050960;28;20028;-70
2020/12/06 04:25:04;;;;;;;48.10;24.95;;;2.70;99.90;;;;;;5049492;28;20027;-70
2020/12/06 04:27:30;;;;;;;44.30;23.15;;;2.70;99.90;;;;;;5051415;28;20372;-70
2020/12/06 04:29:55;;;;;;;47.15;24.15;;;2.70;99.90;;;;;;5050077;28;20405;-69
2020/12/06 04:32:21;;;;;;;45.97;23.17;;;2.70;99.90;;;;;;5060326;28;20094;-69
2020/12/06 04:34:47;;;;;;;47.95;23.15;;;2.70;99.90;;;;;;5050913;28;20039;-70
2020/12/06 04:37:13;;;;;;;45.75;24.80;;;2.80;99.90;;;;;;5052383;28;20033;-69
2020/12/06 04:39:39;;;;;;;46.13;23.27;;;2.70;99.90;;;;;;5050907;28;20039;-70
2020/12/06 04:42:05;;;;;;;51.35;26.33;;;2.80;99.90;;;;;;5057660;28;20028;-69
2020/12/06 04:44:31;;;;;;;52.50;24.73;;;2.80;99.90;;;;;;5056861;28;20029;-69
2020/12/06 04:47:03;;;;;;;56.30;28.25;;;2.80;99.90;;;;;;5053843;28;20033;-70
2020/12/06 04:49:44;;;;;;;47.20;25.15;;;2.70;99.90;;;;;;5053143;28;20572;-69
2020/12/06 04:52:22;;;;;;;44.55;25.30;;;2.70;99.90;;;;;;5054693;28;20059;-70
2020/12/06 04:55:02;;;;;;;49.35;25.38;;;2.80;99.90;;;;;;5051211;28;20119;-70
2020/12/06 04:57:29;;;;;;;57.90;27.45;;;2.80;99.90;;;;;;5050806;28;20384;-70
2020/12/06 05:00:04;;;;;;;46.63;24.35;;;2.80;99.90;;;;;;5053296;28;20021;-69
2020/12/06 05:02:33;;;;;;;44.60;23.88;;;2.80;99.90;;;;;;5051370;28;20024;-70
2020/12/06 05:05:02;;;;;;;41.17;22.85;;;2.80;99.90;;;;;;5048723;28;20606;-70
2020/12/06 05:07:30;;;;;;;47.63;24.63;;;2.90;99.90;;;;;;5052645;28;20025;-70
2020/12/06 05:09:56;;;;;;;37.85;21.10;;;2.90;99.90;;;;;;5050351;28;20033;-69
2020/12/06 05:12:21;;;;;;;45.30;24.35;;;2.80;99.90;;;;;;5052434;28;20047;-70
2020/12/06 05:14:47;;;;;;;46.45;24.58;;;2.80;99.90;;;;;;5054097;28;20043;-70
2020/12/06 05:17:14;;;;;;;52.72;26.02;;;2.90;99.90;;;;;;5047775;28;20446;-70
2020/12/06 05:19:40;;;;;;;52.13;26.30;;;2.90;99.90;;;;;;5055582;28;20130;-70
2020/12/06 05:22:07;;;;;;;44.92;24.40;;;2.90;99.90;;;;;;5051322;28;20033;-70
2020/12/06 05:24:33;;;;;;;46.47;23.67;;;2.90;99.90;;;;;;5050486;28;20442;-70
2020/12/06 05:26:59;;;;;;;49.55;25.15;;;2.90;99.90;;;;;;5048913;28;20021;-70
2020/12/06 05:29:25;;;;;;;43.95;23.67;;;2.80;99.90;;;;;;5056981;28;20539;-70
2020/12/06 05:31:50;;;;;;;44.63;23.90;;;2.80;99.90;;;;;;5054818;28;20025;-70
2020/12/06 05:34:19;;;;;;;43.60;24.05;;;2.90;99.90;;;;;;5054661;28;20068;-70
2020/12/06 05:36:44;;;;;;;49.28;25.63;;;2.90;99.90;;;;;;5056296;28;20507;-70
2020/12/06 05:39:10;;;;;;;42.60;23.45;;;2.80;99.90;;;;;;5055291;28;20025;-70
2020/12/06 05:41:36;;;;;;;43.65;24.27;;;2.90;99.90;;;;;;5054515;28;20033;-70
2020/12/06 05:44:04;;;;;;;52.50;25.63;;;2.90;99.90;;;;;;5055002;28;20067;-70
2020/12/06 05:46:34;;;;;;;46.22;26.30;;;2.80;99.90;;;;;;5055933;28;20033;-69
2020/12/06 05:49:01;;;;;;;45.67;25.63;;;2.90;99.90;;;;;;5052026;28;20025;-70
2020/12/06 05:51:27;;;;;;;42.47;24.05;;;2.90;99.90;;;;;;5053470;28;20021;-70
2020/12/06 05:53:56;;;;;;;43.88;23.65;;;2.90;99.90;;;;;;5055293;28;20032;-70
2020/12/06 05:56:22;;;;;;;42.55;24.77;;;2.90;99.90;;;;;;5051433;28;20089;-70
2020/12/06 05:58:49;;;;;;;41.97;23.92;;;2.90;99.90;;;;;;5055672;28;20530;-70
2020/12/06 06:01:18;;;;;;;53.05;25.58;;;2.90;99.90;;;;;;5055122;28;20048;-70
2020/12/06 06:03:51;;;;;;;50.65;25.20;;;2.90;99.90;;;;;;5056552;28;20112;-70
2020/12/06 06:06:38;;;;;;;53.95;26.20;;;2.80;99.90;;;;;;5053467;28;20175;-70
2020/12/06 06:09:04;;;;;;;52.88;25.50;;;2.80;99.90;;;;;;5053528;28;20075;-70
2020/12/06 06:11:31;;;;;;;49.85;26.50;;;2.80;99.90;;;;;;5053411;28;20090;-70
2020/12/06 06:13:58;;;;;;;49.47;25.75;;;2.80;99.90;;;;;;5050963;28;20021;-70
2020/12/06 06:16:26;;;;;;;51.47;25.65;;;2.90;99.90;;;;;;5053033;28;20474;-70
2020/12/06 06:18:53;;;;;;;47.08;26.40;;;2.80;99.90;;;;;;5051238;28;20111;-70
2020/12/06 06:21:26;;;;;;;48.92;26.15;;;2.80;99.90;;;;;;5057786;28;20020;-70
2020/12/06 06:23:53;;;;;;;47.95;24.52;;;2.80;99.90;;;;;;5053501;28;20082;-70
2020/12/06 06:26:20;;;;;;;45.38;24.30;;;2.90;99.90;;;;;;5051677;28;20425;-70
2020/12/06 06:28:46;;;;;;;41.72;24.45;;;2.90;99.90;;;;;;5054835;28;20029;-70
2020/12/06 06:31:14;;;;;;;48.50;26.23;;;2.90;99.90;;;;;;5054210;28;20085;-70
2020/12/06 06:33:40;;;;;;;43.40;23.77;;;2.80;99.90;;;;;;5051569;28;20482;-70
2020/12/06 06:36:09;;;;;;;42.78;23.63;;;2.80;99.90;;;;;;5053102;28;20052;-69
2020/12/06 06:38:40;;;;;;;62.53;33.83;;;2.90;99.90;;;;;;5051866;28;20123;-70
2020/12/06 06:41:07;;;;;;;53.67;30.05;;;2.90;99.90;;;;;;5052173;28;20504;-70
2020/12/06 06:43:33;;;;;;;50.13;25.30;;;2.90;99.90;;;;;;5053746;28;20466;-70
2020/12/06 06:46:11;;;;;;;51.13;26.30;;;2.90;99.90;;;;;;5052959;28;20081;-70
2020/12/06 06:48:37;;;;;;;43.38;24.70;;;2.90;99.90;;;;;;5053894;28;20504;-70
2020/12/06 06:51:05;;;;;;;51.63;26.35;;;2.90;99.90;;;;;;5052668;28;20033;-70
2020/12/06 06:53:31;;;;;;;56.15;27.48;;;2.90;99.90;;;;;;5054609;28;20078;-70
2020/12/06 06:55:59;;;;;;;48.75;25.77;;;2.90;99.90;;;;;;5054023;28;20037;-70
2020/12/06 06:58:29;;;;;;;47.88;24.23;;;2.90;99.90;;;;;;5052025;28;20033;-70
2020/12/06 07:01:30;;;;;;;51.95;25.42;;;2.90;99.90;;;;;;5051622;28;20033;-70
2020/12/06 07:03:55;;;;;;;46.90;23.48;;;2.90;99.90;;;;;;5025628;28;20056;-70
2020/12/06 07:06:44;;;;;;;46.90;24.35;;;2.90;99.90;;;;;;5048163;28;20063;-70
2020/12/06 07:09:10;;;;;;;46.60;23.20;;;2.90;99.90;;;;;;5053108;28;20499;-69
2020/12/06 07:11:38;;;;;;;42.03;22.38;;;2.80;99.90;;;;;;5057001;28;20111;-70
2020/12/06 07:14:04;;;;;;;39.47;22.33;;;2.90;99.90;;;;;;5053926;28;20568;-70
2020/12/06 07:16:30;;;;;;;43.92;23.05;;;2.90;99.90;;;;;;5054240;28;20112;-70
2020/12/06 07:18:55;;;;;;;39.75;21.98;;;2.90;99.90;;;;;;5052314;28;20017;-70
2020/12/06 07:21:21;;;;;;;44.38;23.00;;;2.90;99.90;;;;;;5051091;28;20473;-70
2020/12/06 07:23:47;;;;;;;43.78;22.90;;;2.90;99.90;;;;;;5051520;28;20025;-70
2020/12/06 07:26:13;;;;;;;47.47;23.90;;;3.00;99.90;;;;;;5053572;28;20035;-70
2020/12/06 07:28:38;;;;;;;41.65;23.23;;;3.00;99.90;;;;;;5052302;28;20025;-70
2020/12/06 07:31:04;;;;;;;47.20;25.67;;;3.00;99.90;;;;;;5053640;28;20033;-70
2020/12/06 07:33:30;;;;;;;47.72;24.75;;;3.00;99.90;;;;;;5049210;28;20039;-70
2020/12/06 07:35:55;;;;;;;45.42;24.75;;;2.90;99.90;;;;;;5051103;28;20045;-70
2020/12/06 07:38:21;;;;;;;45.55;25.85;;;3.00;99.90;;;;;;5051050;28;20477;-70
2020/12/06 07:40:47;;;;;;;43.20;24.73;;;3.00;99.90;;;;;;5051414;28;20064;-70
2020/12/06 07:43:14;;;;;;;48.63;25.13;;;3.00;99.90;;;;;;5054157;28;20452;-71
2020/12/06 07:45:40;;;;;;;48.92;27.50;;;3.10;99.90;;;;;;5051504;28;20036;-71
2020/12/06 07:48:06;;;;;;;51.03;26.27;;;3.00;99.90;;;;;;5052424;28;20094;-70
2020/12/06 07:50:32;;;;;;;40.30;22.38;;;3.00;99.90;;;;;;5054437;28;20126;-71
2020/12/06 07:53:02;;;;;;;44.70;25.83;;;3.00;99.90;;;;;;5050239;28;20052;-70
2020/12/06 07:55:28;;;;;;;55.45;27.88;;;3.00;99.90;;;;;;5056872;28;20044;-70
2020/12/06 07:57:58;;;;;;;44.85;25.27;;;2.90;99.90;;;;;;5050014;28;20033;-71
2020/12/06 08:00:30;;;;;;;44.10;23.85;;;3.00;99.90;;;;;;5048703;28;20389;-70
2020/12/06 08:02:59;;;;;;;;;;;3.00;99.90;;;;;;5053488;28;20029;-70
2020/12/06 08:05:31;;;;;;;48.35;24.95;;;3.00;99.90;;;;;;5052180;28;19909;-70
2020/12/06 08:08:01;;;;;;;50.13;26.08;;;3.10;99.90;;;;;;5056701;28;20016;-71
2020/12/06 08:10:28;;;;;;;44.42;25.27;;;3.00;99.90;;;;;;5054199;28;20025;-70
2020/12/06 08:12:55;;;;;;;54.28;25.25;;;3.00;99.90;;;;;;5052765;28;20383;-70
2020/12/06 08:15:28;;;;;;;49.53;26.17;;;3.00;99.90;;;;;;5052389;28;20029;-70
2020/12/06 08:17:54;;;;;;;45.78;26.45;;;3.00;99.90;;;;;;5051054;28;20032;-71
2020/12/06 08:20:25;;;;;;;52.60;26.23;;;3.10;99.90;;;;;;5050231;28;20029;-71
2020/12/06 08:22:54;;;;;;;49.97;26.67;;;3.10;99.90;;;;;;5050518;28;20112;-69
2020/12/06 08:25:27;;;;;;;49.33;24.23;;;3.00;99.90;;;;;;5053596;28;20500;-69
2020/12/06 08:27:55;;;;;;;48.40;25.48;;;3.10;99.90;;;;;;5054333;28;20056;-70
2020/12/06 08:30:22;;;;;;;45.40;25.30;;;3.20;99.90;;;;;;5051991;28;20061;-70
2020/12/06 08:32:57;;;;;;;55.00;28.23;;;3.20;99.90;;;;;;5052740;28;20377;-70
2020/12/06 08:35:42;;;;;;;46.58;25.05;;;3.20;99.90;;;;;;5054691;28;20033;-70
2020/12/06 08:38:20;;;;;;;47.95;25.92;;;3.30;99.90;;;;;;5057555;28;20036;-70
2020/12/06 08:41:11;;;;;;;43.60;23.75;;;3.30;99.90;;;;;;5054951;28;20045;-71
2020/12/06 08:43:50;;;;;;;47.33;25.38;;;3.30;99.90;;;;;;5057204;28;20086;-71
2020/12/06 08:46:20;;;;;;;51.83;25.65;;;3.30;99.90;;;;;;5052729;28;20100;-71
2020/12/06 08:48:47;;;;;;;51.60;25.77;;;3.30;99.90;;;;;;5056244;28;20060;-71
2020/12/06 08:51:33;;;;;;;48.63;24.98;;;3.40;99.90;;;;;;5062817;28;20027;-70
2020/12/06 08:54:01;;;;;;;48.17;25.92;;;3.30;99.90;;;;;;5051694;28;20036;-70
2020/12/06 08:56:47;;;;;;;46.45;24.63;;;3.40;99.90;;;;;;5054929;28;20043;-70
2020/12/06 08:59:15;;;;;;;47.38;25.60;;;3.40;99.90;;;;;;5054833;28;20021;-70
2020/12/06 09:01:48;;;;;;;52.08;26.02;;;3.40;99.90;;;;;;5040268;28;20029;-70
2020/12/06 09:04:15;;;;;;;48.50;25.83;;;3.40;99.90;;;;;;5057375;28;20025;-70
2020/12/06 09:06:41;;;;;;;46.67;25.23;;;3.30;99.90;;;;;;5056662;28;20367;-70
2020/12/06 09:09:07;;;;;;;45.78;25.95;;;3.30;99.90;;;;;;5058138;28;20047;-71
2020/12/06 09:11:32;;;;;;;52.47;28.98;;;3.40;99.90;;;;;;5061507;28;20119;-71
2020/12/06 09:13:58;;;;;;;47.05;26.42;;;3.40;99.90;;;;;;5065192;28;20013;-70
2020/12/06 09:16:24;;;;;;;48.63;26.75;;;3.40;99.90;;;;;;5058102;28;20440;-71
2020/12/06 09:18:49;;;;;;;53.75;29.13;;;3.50;99.90;;;;;;5057157;28;20051;-71
2020/12/06 09:21:15;;;;;;;56.17;30.65;;;3.50;99.90;;;;;;5056064;28;20104;-71
2020/12/06 09:23:41;;;;;;;55.40;29.77;;;3.40;99.90;;;;;;5056868;28;20039;-71
2020/12/06 09:26:07;;;;;;;56.65;28.98;;;3.50;99.90;;;;;;5055774;28;20384;-71
2020/12/06 09:28:34;;;;;;;48.67;27.85;;;3.40;99.90;;;;;;5063115;28;20033;-71
2020/12/06 09:31:00;;;;;;;62.58;31.80;;;3.40;99.90;;;;;;5064940;28;20025;-71
2020/12/06 09:33:26;;;;;;;53.55;28.52;;;3.40;99.90;;;;;;5058515;28;20124;-71
2020/12/06 09:35:52;;;;;;;53.00;27.45;;;3.40;99.90;;;;;;5056872;28;20452;-71
2020/12/06 09:38:18;;;;;;;52.10;28.23;;;3.40;99.90;;;;;;5063590;28;20025;-71
2020/12/06 09:40:44;;;;;;;54.70;29.25;;;3.40;99.90;;;;;;5057399;28;20036;-71
2020/12/06 09:43:10;;;;;;;55.47;30.35;;;3.50;99.90;;;;;;5055863;28;20039;-71
2020/12/06 09:45:36;;;;;;;52.28;28.83;;;3.60;99.90;;;;;;5062492;28;20029;-71
2020/12/06 09:48:03;;;;;;;59.88;29.50;;;3.60;99.90;;;;;;5058727;28;20021;-71
2020/12/06 09:50:28;;;;;;;61.58;30.45;;;3.60;99.90;;;;;;5054053;28;20033;-71
2020/12/06 09:52:54;;;;;;;53.00;27.58;;;3.60;99.90;;;;;;5066010;28;20029;-71
2020/12/06 09:55:20;;;;;;;57.65;30.83;;;3.60;99.90;;;;;;5058645;28;20051;-71
2020/12/06 09:57:45;;;;;;;53.45;29.63;;;3.60;99.90;;;;;;5057697;28;20495;-72
2020/12/06 10:00:11;;;;;;;55.70;29.92;;;3.70;99.90;;;;;;5063234;28;20025;-71
2020/12/06 10:02:37;;;;;;;55.50;30.67;;;3.70;99.90;;;;;;5061405;28;20063;-72
2020/12/06 10:05:03;;;;;;;54.20;32.00;;;3.70;99.90;;;;;;5055162;28;20025;-71
2020/12/06 10:07:28;;;;;;;56.55;28.95;;;3.60;99.90;;;;;;5064607;28;20044;-71
2020/12/06 10:09:54;;;;;;;68.03;33.72;;;3.70;99.90;;;;;;5059321;28;20240;-71
2020/12/06 10:12:19;;;;;;;59.65;31.95;;;3.70;99.90;;;;;;5058536;28;20037;-71
2020/12/06 10:14:45;;;;;;;51.75;30.00;;;3.80;99.90;;;;;;5057876;28;20075;-71
2020/12/06 10:17:11;;;;;;;55.55;30.35;;;3.90;99.90;;;;;;5053985;28;20028;-70
2020/12/06 10:19:37;;;;;;;56.60;30.80;;;3.90;99.90;;;;;;5055915;28;20079;-71
2020/12/06 10:22:03;;;;;;;62.65;31.05;;;3.90;99.90;;;;;;5052420;28;20153;-70
2020/12/06 10:24:30;;;;;;;57.42;32.00;;;3.90;99.90;;;;;;5056964;28;20481;-70
2020/12/06 10:26:56;;;;;;;58.55;31.58;;;3.90;99.90;;;;;;5053872;28;20021;-71
2020/12/06 10:29:23;;;;;;;53.28;30.13;;;4.00;99.90;;;;;;5058931;28;20021;-71
2020/12/06 10:31:53;;;;;;;54.80;29.92;;;4.10;99.90;;;;;;5055550;28;20385;-70
2020/12/06 10:34:19;;;;;;;51.80;29.38;;;4.00;99.90;;;;;;5050825;28;20103;-71
2020/12/06 10:36:52;;;;;;;60.33;32.22;;;4.10;99.90;;;;;;5060547;28;20082;-70
2020/12/06 10:39:20;;;;;;;58.42;33.35;;;4.10;99.90;;;;;;5053308;28;20032;-70
2020/12/06 10:41:53;;;;;;;55.78;30.80;;;4.20;99.90;;;;;;5056060;28;20064;-70
2020/12/06 10:44:19;;;;;;;57.72;32.03;;;4.20;99.90;;;;;;5055934;28;20446;-70
2020/12/06 10:46:46;;;;;;;58.80;31.85;;;4.20;99.90;;;;;;5051998;28;20481;-70
2020/12/06 10:49:13;;;;;;;53.55;32.00;;;4.30;99.90;;;;;;5057003;28;20051;-69
2020/12/06 10:51:40;;;;;;;61.10;34.22;;;4.30;99.90;;;;;;5065204;28;20035;-70
2020/12/06 10:54:06;;;;;;;57.15;32.08;;;4.30;99.90;;;;;;5060053;28;20029;-70
2020/12/06 10:56:32;;;;;;;58.08;32.17;;;4.30;99.90;;;;;;5058611;28;20032;-70
2020/12/06 10:58:57;;;;;;;61.97;34.00;;;4.30;99.90;;;;;;5053554;28;20017;-69
2020/12/06 11:01:26;;;;;;;51.50;30.63;;;4.30;99.90;;;;;;5052814;28;20029;-69
2020/12/06 11:03:52;;;;;;;57.10;31.58;;;4.40;99.90;;;;;;5053005;28;20013;-70
2020/12/06 11:06:22;;;;;;;55.45;31.27;;;4.40;99.90;;;;;;5053571;28;20031;-69
2020/12/06 11:08:48;;;;;;;60.67;32.28;;;4.40;99.90;;;;;;5056912;28;20104;-69
2020/12/06 11:11:14;;;;;;;62.47;32.25;;;4.40;99.90;;;;;;5052749;28;20104;-69
2020/12/06 11:13:41;;;;;;;61.53;33.83;;;4.40;99.90;;;;;;5055822;28;20025;-69
2020/12/06 11:16:06;;;;;;;56.35;31.20;;;4.40;99.90;;;;;;5057212;28;20555;-70
2020/12/06 11:18:32;;;;;;;59.47;31.70;;;4.40;99.90;;;;;;5047687;28;20024;-69
2020/12/06 11:20:58;;;;;;;65.32;34.97;;;4.40;99.90;;;;;;5054187;28;20055;-69
2020/12/06 11:23:23;;;;;;;59.55;32.20;;;4.50;99.90;;;;;;5055234;28;20029;-69
2020/12/06 11:25:49;;;;;;;52.15;29.40;;;4.50;99.90;;;;;;5052061;28;20032;-69
2020/12/06 11:28:14;;;;;;;57.78;31.58;;;4.50;99.90;;;;;;5051939;28;20021;-70
2020/12/06 11:30:40;;;;;;;60.75;32.97;;;4.50;99.90;;;;;;5052648;28;20032;-69
2020/12/06 11:33:06;;;;;;;56.97;31.67;;;4.60;99.90;;;;;;5053972;28;20100;-69
2020/12/06 11:35:31;;;;;;;60.47;34.67;;;4.60;99.90;;;;;;5049988;28;20059;-69
2020/12/06 11:37:57;;;;;;;58.28;32.33;;;4.60;99.90;;;;;;5051536;28;20043;-70
2020/12/06 11:40:23;;;;;;;61.10;33.67;;;4.60;99.90;;;;;;5065045;28;20067;-70
2020/12/06 11:42:48;;;;;;;62.45;34.28;;;4.70;99.90;;;;;;5048190;28;20033;-69
2020/12/06 11:45:14;;;;;;;60.75;34.63;;;4.70;99.90;;;;;;5052978;28;20060;-69
2020/12/06 11:47:40;;;;;;;57.63;30.88;;;4.70;99.90;;;;;;5051328;28;20060;-69
2020/12/06 11:50:06;;;;;;;59.65;31.33;;;4.70;99.90;;;;;;5051854;28;20033;-71
2020/12/06 11:52:32;;;;;;;58.15;33.22;;;4.80;99.90;;;;;;5053505;28;20063;-70
2020/12/06 11:54:58;;;;;;;59.92;32.45;;;4.80;99.90;;;;;;5051509;28;20033;-70
2020/12/06 11:57:24;;;;;;;64.43;35.00;;;4.80;99.90;;;;;;5052101;28;20036;-70
2020/12/06 11:59:50;;;;;;;60.33;35.40;;;4.80;99.90;;;;;;5055049;28;20032;-70
2020/12/06 12:02:16;;;;;;;60.45;34.10;;;4.80;99.90;;;;;;5055616;28;20021;-72
2020/12/06 12:04:42;;;;;;;63.40;35.30;;;4.80;99.90;;;;;;5053284;28;20612;-70
2020/12/06 12:07:07;;;;;;;61.70;35.80;;;4.80;99.90;;;;;;5062210;28;20436;-70
2020/12/06 12:09:33;;;;;;;57.00;33.42;;;4.80;99.90;;;;;;5057319;28;20100;-70
2020/12/06 12:11:58;;;;;;;60.92;35.95;;;4.80;99.90;;;;;;5065292;28;20505;-71
2020/12/06 12:14:24;;;;;;;61.03;33.72;;;4.80;99.90;;;;;;5055140;28;20013;-71
2020/12/06 12:16:49;;;;;;;61.80;33.08;;;4.80;99.90;;;;;;5053726;28;20263;-71
2020/12/06 12:19:15;;;;;;;61.58;32.17;;;4.80;99.90;;;;;;5059871;28;20020;-70
2020/12/06 12:21:41;;;;;;;58.55;32.75;;;4.80;99.90;;;;;;5054985;28;20445;-70
2020/12/06 12:24:07;;;;;;;57.40;33.53;;;4.90;99.90;;;;;;5054127;28;20025;-70
2020/12/06 12:26:32;;;;;;;58.15;33.85;;;4.90;99.90;;;;;;5056102;28;20390;-69
2020/12/06 12:28:58;;;;;;;57.42;34.50;;;5.00;99.90;;;;;;5055406;28;20573;-70
2020/12/06 12:31:24;;;;;;;56.90;31.65;;;5.00;99.90;;;;;;5051709;28;20048;-70
2020/12/06 12:33:50;;;;;;;55.15;31.63;;;5.10;99.90;;;;;;5055933;28;20446;-70
2020/12/06 12:36:16;;;;;;;61.25;33.00;;;5.10;99.90;;;;;;5058139;28;20060;-70
2020/12/06 12:38:41;;;;;;;60.45;32.63;;;5.10;99.90;;;;;;5060691;28;20096;-69